Time;durP1;ratioP1;P1;durP2;ratioP2;P2;SDS_P1;SDS_P2;PMS_P1;PMS_P2;Temp;Humidity;BMP_temperature;BMP_pressure;BME280_temperature;BME280_humidity;BME280_pressure;Samples;Min_cycle;Max_cycle;Signal;HPM_P1;HPM_P2
2022/05/04 00:00:47;;;;;;;10.35;4.97;;;;;;;;;;5072034;28;20078;-38
2022/05/04 00:03:13;;;;;;;6.40;4.47;;;;;;;;;;5072037;28;20071;-38
2022/05/04 00:05:38;;;;;;;5.57;4.28;;;;;;;;;;5071979;28;20365;-37
2022/05/04 00:08:05;;;;;;;6.53;4.78;;;;;;;;;;5071653;28;20500;-38
2022/05/04 00:10:31;;;;;;;7.65;4.82;;;;;;;;;;5071927;28;20029;-38
2022/05/04 00:13:00;;;;;;;7.90;5.53;;;;;;;;;;5071661;28;20024;-37
2022/05/04 00:15:26;;;;;;;8.23;5.50;;;;;;;;;;5072139;28;20099;-37
2022/05/04 00:17:51;;;;;;;7.47;5.05;;;;;;;;;;5072177;28;20035;-38
2022/05/04 00:20:17;;;;;;;6.25;5.00;;;;;;;;;;5071788;28;20028;-37
2022/05/04 00:22:43;;;;;;;6.50;4.90;;;;;;;;;;5071666;28;20126;-37
2022/05/04 00:25:10;;;;;;;6.15;4.75;;;;;;;;;;5071622;28;20536;-37
2022/05/04 00:27:37;;;;;;;8.90;5.03;;;;;;;;;;5071304;28;20031;-38
2022/05/04 00:30:03;;;;;;;5.72;4.78;;;;;;;;;;5071597;28;20119;-37
2022/05/04 00:32:29;;;;;;;5.57;4.70;;;;;;;;;;5071541;28;20059;-39
2022/05/04 00:34:54;;;;;;;7.90;5.00;;;;;;;;;;5071236;28;20029;-38
2022/05/04 00:37:20;;;;;;;7.82;5.43;;;;;;;;;;5071405;28;20028;-38
2022/05/04 00:39:47;;;;;;;7.90;5.28;;;;;;;;;;5071391;28;20032;-37
2022/05/04 00:42:18;;;;;;;7.15;5.50;;;;;;;;;;5075607;28;20469;-38
2022/05/04 00:44:46;;;;;;;6.07;4.88;;;;;;;;;;5075606;28;20063;-37
2022/05/04 00:47:12;;;;;;;12.20;5.60;;;;;;;;;;5075982;28;20039;-37
2022/05/04 00:49:39;;;;;;;6.93;4.97;;;;;;;;;;5075315;28;20384;-38
2022/05/04 00:52:06;;;;;;;6.40;5.18;;;;;;;;;;5075811;28;20107;-38
2022/05/04 00:54:35;;;;;;;7.65;5.55;;;;;;;;;;5075540;28;20052;-38
2022/05/04 00:57:03;;;;;;;6.28;4.90;;;;;;;;;;5075420;28;20078;-38
2022/05/04 00:59:30;;;;;;;8.13;4.80;;;;;;;;;;5075527;28;20500;-37
2022/05/04 01:01:56;;;;;;;8.95;5.35;;;;;;;;;;5075602;28;20024;-37
2022/05/04 01:04:22;;;;;;;10.13;5.45;;;;;;;;;;5075140;28;20074;-37
2022/05/04 01:06:48;;;;;;;5.75;4.82;;;;;;;;;;5075019;28;20025;-37
2022/05/04 01:09:14;;;;;;;7.88;5.68;;;;;;;;;;5075345;28;20025;-37
2022/05/04 01:11:40;;;;;;;5.88;4.97;;;;;;;;;;5075055;28;20025;-37
2022/05/04 01:14:11;;;;;;;7.07;4.78;;;;;;;;;;5075442;28;20020;-37
2022/05/04 01:16:39;;;;;;;7.07;4.35;;;;;;;;;;5075085;28;20033;-37
2022/05/04 01:19:06;;;;;;;5.22;4.35;;;;;;;;;;5075217;28;20032;-37
2022/05/04 01:21:32;;;;;;;6.68;4.57;;;;;;;;;;5075010;28;20031;-38
2022/05/04 01:23:58;;;;;;;8.55;4.57;;;;;;;;;;5074782;28;20024;-38
2022/05/04 01:26:24;;;;;;;9.25;4.85;;;;;;;;;;5075249;28;20036;-37
2022/05/04 01:28:49;;;;;;;8.20;5.45;;;;;;;;;;5074740;28;20550;-37
2022/05/04 01:31:15;;;;;;;7.95;5.03;;;;;;;;;;5074643;28;20362;-37
2022/05/04 01:33:40;;;;;;;5.57;4.10;;;;;;;;;;5074645;28;20037;-38
2022/05/04 01:36:07;;;;;;;5.70;4.63;;;;;;;;;;5074582;28;20480;-38
2022/05/04 01:38:33;;;;;;;6.47;5.05;;;;;;;;;;5074800;28;20032;-38
2022/05/04 01:40:59;;;;;;;5.65;4.43;;;;;;;;;;5074459;28;20027;-37
2022/05/04 01:43:24;;;;;;;6.88;4.70;;;;;;;;;;5074851;28;20107;-37
2022/05/04 01:45:50;;;;;;;5.35;4.20;;;;;;;;;;5074860;28;20020;-37
2022/05/04 01:48:15;;;;;;;6.43;4.10;;;;;;;;;;5074606;28;20513;-37
2022/05/04 01:50:41;;;;;;;10.43;5.07;;;;;;;;;;5074432;28;20020;-36
2022/05/04 01:53:06;;;;;;;8.45;5.00;;;;;;;;;;5074146;28;20400;-37
2022/05/04 01:55:33;;;;;;;8.07;5.80;;;;;;;;;;5074258;28;20056;-37
2022/05/04 01:57:59;;;;;;;7.95;6.05;;;;;;;;;;5074512;28;20422;-37
2022/05/04 02:00:24;;;;;;;8.82;5.68;;;;;;;;;;5074181;28;20024;-37
2022/05/04 02:02:53;;;;;;;8.38;5.38;;;;;;;;;;5074292;28;20067;-37
2022/05/04 02:05:20;;;;;;;10.05;5.20;;;;;;;;;;5074192;28;20144;-38
2022/05/04 02:07:46;;;;;;;6.88;4.85;;;;;;;;;;5074150;28;20499;-38
2022/05/04 02:10:12;;;;;;;7.90;4.85;;;;;;;;;;5074070;28;20033;-37
2022/05/04 02:12:38;;;;;;;6.25;4.50;;;;;;;;;;5074547;28;20025;-37
2022/05/04 02:15:05;;;;;;;8.15;4.80;;;;;;;;;;5073974;28;20021;-37
2022/05/04 02:17:30;;;;;;;9.70;5.22;;;;;;;;;;5074201;28;20581;-37
2022/05/04 02:19:56;;;;;;;6.47;4.95;;;;;;;;;;5073904;28;20108;-38
2022/05/04 02:22:21;;;;;;;8.63;4.88;;;;;;;;;;5073998;28;20027;-37
2022/05/04 02:24:46;;;;;;;7.13;5.35;;;;;;;;;;5073956;28;20060;-38
2022/05/04 02:27:12;;;;;;;6.38;4.85;;;;;;;;;;5073721;28;20464;-38
2022/05/04 02:29:37;;;;;;;8.05;5.10;;;;;;;;;;5073938;28;20029;-37
2022/05/04 02:32:03;;;;;;;6.57;4.88;;;;;;;;;;5073674;28;20503;-37
2022/05/04 02:34:29;;;;;;;8.13;5.05;;;;;;;;;;5073375;28;20016;-37
2022/05/04 02:39:38;;;;;;;7.30;4.88;;;;;;;;;;5073503;28;20085;-37
2022/05/04 02:42:04;;;;;;;5.53;4.45;;;;;;;;;;5073351;28;20021;-37
2022/05/04 02:44:30;;;;;;;6.53;4.90;;;;;;;;;;5072930;28;20035;-37
2022/05/04 02:46:55;;;;;;;6.47;4.63;;;;;;;;;;5073050;28;20124;-37
2022/05/04 02:49:21;;;;;;;5.68;4.80;;;;;;;;;;5073202;28;20068;-37
2022/05/04 02:51:47;;;;;;;14.80;5.40;;;;;;;;;;5072957;28;20048;-37
2022/05/04 02:54:12;;;;;;;8.70;4.72;;;;;;;;;;5072757;28;20052;-37
2022/05/04 02:56:38;;;;;;;6.82;4.78;;;;;;;;;;5072983;28;20032;-37
2022/05/04 02:59:03;;;;;;;6.55;4.43;;;;;;;;;;5073077;28;20058;-37
2022/05/04 03:04:13;;;;;;;7.22;4.97;;;;;;;;;;5072552;28;20039;-37
2022/05/04 03:06:40;;;;;;;7.88;5.20;;;;;;;;;;5072728;28;20028;-37
2022/05/04 03:09:07;;;;;;;9.00;5.00;;;;;;;;;;5072275;28;20480;-38
2022/05/04 03:14:20;;;;;;;6.03;4.72;;;;;;;;;;5072657;28;20495;-38
2022/05/04 03:16:49;;;;;;;12.43;5.03;;;;;;;;;;5072412;28;20024;-37
2022/05/04 03:19:15;;;;;;;8.25;5.47;;;;;;;;;;5072648;28;20020;-38
2022/05/04 03:21:41;;;;;;;8.18;5.10;;;;;;;;;;5072725;28;20082;-38
2022/05/04 03:24:07;;;;;;;6.75;4.90;;;;;;;;;;5072515;28;20074;-37
2022/05/04 03:26:32;;;;;;;7.78;5.57;;;;;;;;;;5054740;28;20536;-37
2022/05/04 03:28:57;;;;;;;6.55;5.45;;;;;;;;;;5072436;28;20049;-37
2022/05/04 03:31:23;;;;;;;7.20;5.75;;;;;;;;;;5072830;28;20033;-38
2022/05/04 03:33:49;;;;;;;9.85;5.05;;;;;;;;;;5072521;28;20528;-37
2022/05/04 03:36:14;;;;;;;6.13;4.30;;;;;;;;;;5073028;28;20029;-38
2022/05/04 03:38:40;;;;;;;6.20;4.15;;;;;;;;;;5072428;28;20025;-37
2022/05/04 03:41:06;;;;;;;6.50;5.00;;;;;;;;;;5072134;28;20028;-37
2022/05/04 03:43:31;;;;;;;11.90;9.13;;;;;;;;;;5072407;28;20534;-37
2022/05/04 03:46:20;;;;;;;5.97;4.80;;;;;;;;;;5072059;28;20025;-38
2022/05/04 03:48:48;;;;;;;8.98;4.35;;;;;;;;;;5072319;28;20031;-38
2022/05/04 03:51:16;;;;;;;5.88;4.75;;;;;;;;;;5072324;28;20028;-37
2022/05/04 03:53:42;;;;;;;5.70;4.32;;;;;;;;;;5071922;28;20068;-38
2022/05/04 03:56:07;;;;;;;8.85;4.10;;;;;;;;;;5072308;28;20111;-37
2022/05/04 03:58:34;;;;;;;7.63;4.10;;;;;;;;;;5072371;28;20048;-38
2022/05/04 04:01:01;;;;;;;9.52;4.40;;;;;;;;;;5072266;28;20048;-38
2022/05/04 04:03:27;;;;;;;10.23;4.38;;;;;;;;;;5072672;28;20055;-37
2022/05/04 04:05:53;;;;;;;6.40;4.40;;;;;;;;;;5072177;28;20012;-37
2022/05/04 04:08:18;;;;;;;5.97;4.10;;;;;;;;;;5072051;28;20523;-38
2022/05/04 04:10:44;;;;;;;9.68;4.13;;;;;;;;;;5071500;28;20024;-37
2022/05/04 04:13:09;;;;;;;4.90;4.13;;;;;;;;;;5071751;28;20028;-38
2022/05/04 04:15:35;;;;;;;6.32;3.90;;;;;;;;;;5070897;28;20425;-39
2022/05/04 04:18:00;;;;;;;4.57;4.05;;;;;;;;;;5071593;28;20025;-40
2022/05/04 04:23:10;;;;;;;5.40;4.05;;;;;;;;;;5072448;28;20085;-38
2022/05/04 04:25:36;;;;;;;5.13;3.95;;;;;;;;;;5072149;28;20115;-39
2022/05/04 04:28:02;;;;;;;10.07;3.97;;;;;;;;;;5071388;28;20086;-38
2022/05/04 04:30:28;;;;;;;6.95;4.38;;;;;;;;;;5072046;28;20063;-39
2022/05/04 04:32:53;;;;;;;4.65;3.88;;;;;;;;;;5071725;28;20460;-38
2022/05/04 04:35:18;;;;;;;7.65;4.55;;;;;;;;;;5071337;28;20111;-39
2022/05/04 04:37:44;;;;;;;7.13;4.93;;;;;;;;;;5071045;28;20036;-38
2022/05/04 04:40:10;;;;;;;5.90;4.80;;;;;;;;;;5071886;28;20027;-38
2022/05/04 04:42:39;;;;;;;5.50;4.40;;;;;;;;;;5072079;28;20028;-39
2022/05/04 04:45:05;;;;;;;5.20;4.40;;;;;;;;;;5071775;28;20032;-39
2022/05/04 04:47:31;;;;;;;4.70;4.20;;;;;;;;;;5071639;28;20051;-38
2022/05/04 04:49:57;;;;;;;7.07;4.47;;;;;;;;;;5071454;28;20472;-38
2022/05/04 04:52:23;;;;;;;9.38;4.28;;;;;;;;;;5071481;28;20038;-38
2022/05/04 04:54:52;;;;;;;6.40;4.70;;;;;;;;;;5071105;28;20123;-41
2022/05/04 04:57:17;;;;;;;6.47;4.90;;;;;;;;;;5071392;28;20070;-40
2022/05/04 04:59:43;;;;;;;6.75;4.88;;;;;;;;;;5071467;28;20033;-39
2022/05/04 05:02:09;;;;;;;8.45;4.95;;;;;;;;;;5071432;28;20427;-38
2022/05/04 05:04:35;;;;;;;5.00;4.40;;;;;;;;;;5071340;28;20051;-39
2022/05/04 05:07:00;;;;;;;6.40;4.00;;;;;;;;;;5053403;28;20468;-39
2022/05/04 05:09:26;;;;;;;5.80;4.40;;;;;;;;;;5071013;28;20029;-38
2022/05/04 05:11:51;;;;;;;8.63;4.65;;;;;;;;;;5071393;28;20345;-41
2022/05/04 05:17:01;;;;;;;6.22;4.70;;;;;;;;;;5071156;28;20035;-44
2022/05/04 05:19:27;;;;;;;11.32;4.80;;;;;;;;;;5071487;28;20028;-43
2022/05/04 05:21:52;;;;;;;5.88;4.43;;;;;;;;;;5053278;28;20042;-42
2022/05/04 05:24:17;;;;;;;5.93;4.38;;;;;;;;;;5071063;28;20036;-42
2022/05/04 05:26:43;;;;;;;9.10;6.90;;;;;;;;;;5072158;28;20028;-40
2022/05/04 05:29:08;;;;;;;9.48;6.35;;;;;;;;;;5074673;28;20040;-44
2022/05/04 05:31:34;;;;;;;8.82;6.80;;;;;;;;;;5074839;28;20021;-42
2022/05/04 05:34:00;;;;;;;9.02;5.47;;;;;;;;;;5074909;28;20118;-41
2022/05/04 05:36:25;;;;;;;5.53;4.70;;;;;;;;;;5074816;28;20427;-41
2022/05/04 05:38:51;;;;;;;6.22;5.25;;;;;;;;;;5074758;28;20028;-40
2022/05/04 05:41:16;;;;;;;5.88;4.88;;;;;;;;;;5074934;28;20021;-42
2022/05/04 05:43:42;;;;;;;6.20;4.60;;;;;;;;;;5074386;28;20404;-41
2022/05/04 05:46:07;;;;;;;7.13;4.47;;;;;;;;;;5074522;28;20024;-41
2022/05/04 05:48:33;;;;;;;4.32;3.83;;;;;;;;;;5074601;28;20025;-43
2022/05/04 05:51:04;;;;;;;4.97;4.30;;;;;;;;;;5074880;28;20021;-41
2022/05/04 05:53:29;;;;;;;8.38;4.65;;;;;;;;;;5074475;28;20028;-43
2022/05/04 05:55:55;;;;;;;5.43;4.03;;;;;;;;;;5056555;28;20498;-43
2022/05/04 05:58:20;;;;;;;5.05;3.95;;;;;;;;;;5074286;28;20059;-43
2022/05/04 06:00:45;;;;;;;5.95;4.15;;;;;;;;;;5074159;28;20024;-40
2022/05/04 06:03:13;;;;;;;5.43;3.92;;;;;;;;;;5073551;28;20464;-42
2022/05/04 06:05:39;;;;;;;4.47;3.92;;;;;;;;;;5074194;28;20067;-42
2022/05/04 06:08:05;;;;;;;4.93;3.85;;;;;;;;;;5055173;28;20035;-41
2022/05/04 06:10:30;;;;;;;5.32;4.30;;;;;;;;;;5072276;28;20021;-41
2022/05/04 06:12:56;;;;;;;3.70;3.40;;;;;;;;;;5073695;28;20025;-44
2022/05/04 06:15:21;;;;;;;3.85;3.45;;;;;;;;;;5074004;28;20035;-42
2022/05/04 06:17:47;;;;;;;6.60;3.92;;;;;;;;;;5073354;28;20525;-42
2022/05/04 06:20:13;;;;;;;7.97;4.72;;;;;;;;;;5073274;28;20056;-41
2022/05/04 06:22:38;;;;;;;4.10;3.60;;;;;;;;;;5074043;28;20037;-39
2022/05/04 06:25:04;;;;;;;3.90;3.13;;;;;;;;;;5073717;28;20025;-39
2022/05/04 06:27:30;;;;;;;5.45;3.72;;;;;;;;;;5074043;28;20025;-40
2022/05/04 06:35:25;;;;;;;6.60;3.65;;;;;;;;;;5073292;28;20090;-41
2022/05/04 06:37:50;;;;;;;4.20;3.58;;;;;;;;;;5072988;28;20452;-40
2022/05/04 06:40:15;;;;;;;4.55;3.38;;;;;;;;;;5073212;28;20385;-39
2022/05/04 06:42:41;;;;;;;4.38;3.25;;;;;;;;;;5073730;28;20074;-40
2022/05/04 06:45:07;;;;;;;3.72;3.42;;;;;;;;;;5055036;28;20532;-46
2022/05/04 06:47:33;;;;;;;4.38;3.53;;;;;;;;;;5055366;28;20035;-43
2022/05/04 06:49:59;;;;;;;6.90;3.42;;;;;;;;;;5073055;28;20036;-42
2022/05/04 06:52:25;;;;;;;4.45;3.42;;;;;;;;;;5073554;28;20399;-46
2022/05/04 06:54:51;;;;;;;5.00;4.03;;;;;;;;;;5073171;28;20075;-39
2022/05/04 06:57:17;;;;;;;4.47;4.07;;;;;;;;;;5055552;28;20048;-36
2022/05/04 06:59:43;;;;;;;5.53;3.55;;;;;;;;;;5073014;28;20036;-46
2022/05/04 07:02:08;;;;;;;5.15;3.47;;;;;;;;;;5055139;28;20468;-47
2022/05/04 07:04:34;;;;;;;5.70;3.22;;;;;;;;;;5073143;28;20016;-43
2022/05/04 07:06:59;;;;;;;6.20;3.45;;;;;;;;;;5072686;28;20028;-42
2022/05/04 07:09:25;;;;;;;5.32;3.22;;;;;;;;;;5072873;28;20068;-42
2022/05/04 07:11:50;;;;;;;5.30;3.17;;;;;;;;;;5072807;28;20059;-42
2022/05/04 07:14:16;;;;;;;6.50;3.42;;;;;;;;;;5072908;28;20064;-46
2022/05/04 07:16:42;;;;;;;4.63;2.88;;;;;;;;;;5072792;28;20052;-39
2022/05/04 07:19:07;;;;;;;4.50;3.17;;;;;;;;;;5072593;28;20024;-40
2022/05/04 07:21:33;;;;;;;6.15;3.33;;;;;;;;;;5072635;28;20016;-43
2022/05/04 07:23:59;;;;;;;6.47;3.20;;;;;;;;;;5072629;28;20017;-43
2022/05/04 07:26:24;;;;;;;5.03;3.55;;;;;;;;;;5054470;28;20028;-39
2022/05/04 07:28:49;;;;;;;5.13;3.22;;;;;;;;;;5072643;28;20024;-43
2022/05/04 07:31:15;;;;;;;8.68;3.53;;;;;;;;;;5072629;28;20023;-42
2022/05/04 07:33:40;;;;;;;3.80;3.10;;;;;;;;;;5072659;28;20032;-41
2022/05/04 07:36:06;;;;;;;6.72;3.60;;;;;;;;;;5072027;28;20025;-46
2022/05/04 07:38:31;;;;;;;6.07;3.30;;;;;;;;;;5072223;28;20103;-41
2022/05/04 07:43:41;;;;;;;3.20;2.90;;;;;;;;;;5072265;28;20066;-41
2022/05/04 07:46:06;;;;;;;3.40;2.90;;;;;;;;;;5072112;28;20021;-44
2022/05/04 07:48:32;;;;;;;5.22;3.10;;;;;;;;;;5071769;28;20024;-43
2022/05/04 07:50:58;;;;;;;4.15;3.13;;;;;;;;;;5071815;28;20028;-44
2022/05/04 07:53:23;;;;;;;5.88;3.15;;;;;;;;;;5072319;28;20032;-44
2022/05/04 07:55:48;;;;;;;6.15;3.80;;;;;;;;;;5071742;28;20496;-41
2022/05/04 07:58:14;;;;;;;4.35;2.97;;;;;;;;;;5072302;28;20035;-42
2022/05/04 08:06:07;;;;;;;3.20;2.40;;;;;;;;;;5072219;28;20433;-41
2022/05/04 08:08:33;;;;;;;3.30;2.45;;;;;;;;;;5069824;28;20107;-39
2022/05/04 08:10:58;;;;;;;3.97;2.90;;;;;;;;;;5070228;28;20472;-41
2022/05/04 08:13:24;;;;;;;4.68;2.80;;;;;;;;;;5070747;28;20031;-43
2022/05/04 08:15:49;;;;;;;4.03;2.33;;;;;;;;;;5070723;28;20488;-44
2022/05/04 08:18:16;;;;;;;3.00;2.50;;;;;;;;;;5071777;28;20029;-44
2022/05/04 08:20:42;;;;;;;5.00;2.55;;;;;;;;;;5071725;28;20027;-44
2022/05/04 08:23:07;;;;;;;4.18;2.47;;;;;;;;;;5071571;28;20025;-40
2022/05/04 08:25:33;;;;;;;2.58;2.10;;;;;;;;;;5071100;28;20099;-41
2022/05/04 08:27:58;;;;;;;1.90;1.80;;;;;;;;;;5069760;28;20379;-44
2022/05/04 08:30:24;;;;;;;3.22;1.98;;;;;;;;;;5069600;28;20040;-39
2022/05/04 08:32:50;;;;;;;3.78;1.92;;;;;;;;;;5071332;28;20020;-40
2022/05/04 08:35:17;;;;;;;2.35;2.00;;;;;;;;;;5071090;28;20064;-43
2022/05/04 08:37:43;;;;;;;1.95;1.67;;;;;;;;;;5071782;28;20476;-46
2022/05/04 08:40:09;;;;;;;2.17;1.80;;;;;;;;;;5071680;28;20034;-43
2022/05/04 08:42:43;;;;;;;1.73;1.55;;;;;;;;;;5071563;28;20048;-41
2022/05/04 08:45:14;;;;;;;2.15;1.90;;;;;;;;;;5071443;28;20020;-40
2022/05/04 08:47:41;;;;;;;3.60;2.08;;;;;;;;;;5071103;28;20025;-39
2022/05/04 08:50:13;;;;;;;2.72;2.50;;;;;;;;;;5071383;28;20115;-38
2022/05/04 08:52:40;;;;;;;1.80;1.70;;;;;;;;;;5071194;28;20024;-41
2022/05/04 08:55:08;;;;;;;2.63;2.00;;;;;;;;;;5071050;28;20140;-44
2022/05/04 08:57:33;;;;;;;3.95;1.83;;;;;;;;;;5071646;28;20033;-44
2022/05/04 08:59:59;;;;;;;3.25;1.85;;;;;;;;;;5071411;28;20124;-38
2022/05/04 09:02:25;;;;;;;1.83;1.73;;;;;;;;;;5073875;28;20021;-40
2022/05/04 09:04:50;;;;;;;2.03;1.70;;;;;;;;;;5075109;28;20537;-39
2022/05/04 09:07:23;;;;;;;2.20;1.73;;;;;;;;;;5075047;28;20020;-38
2022/05/04 09:09:51;;;;;;;1.85;1.70;;;;;;;;;;5075276;28;20115;-37
2022/05/04 09:12:16;;;;;;;3.88;2.10;;;;;;;;;;5074012;28;20025;-40
2022/05/04 09:14:43;;;;;;;2.58;1.70;;;;;;;;;;5075714;28;20109;-37
2022/05/04 09:17:10;;;;;;;3.25;1.98;;;;;;;;;;5075569;28;20028;-42
2022/05/04 09:19:37;;;;;;;3.63;2.55;;;;;;;;;;5075393;28;20444;-41
2022/05/04 09:22:02;;;;;;;4.72;2.05;;;;;;;;;;5074694;28;20020;-41
2022/05/04 09:24:29;;;;;;;2.22;2.03;;;;;;;;;;5074757;28;20476;-44
2022/05/04 09:26:58;;;;;;;1.92;1.80;;;;;;;;;;5074632;28;20024;-39
2022/05/04 09:29:39;;;;;;;2.03;1.85;;;;;;;;;;5074978;28;20047;-41
2022/05/04 09:32:15;;;;;;;2.22;2.03;;;;;;;;;;5074484;28;20032;-42
2022/05/04 09:34:44;;;;;;;3.20;2.42;;;;;;;;;;5074543;28;20035;-38
2022/05/04 09:45:37;;;;;;;2.45;1.80;;;;;;;;;;5074946;28;20071;-42
2022/05/04 09:48:04;;;;;;;2.17;1.80;;;;;;;;;;5074469;28;20052;-42
2022/05/04 09:50:37;;;;;;;2.70;2.13;;;;;;;;;;5074489;28;20107;-41
2022/05/04 09:53:02;;;;;;;3.05;1.88;;;;;;;;;;5074673;28;20020;-42
2022/05/04 09:55:28;;;;;;;2.85;2.13;;;;;;;;;;5073974;28;20544;-37
2022/05/04 09:57:55;;;;;;;3.45;2.05;;;;;;;;;;5074486;28;20344;-38
2022/05/04 10:00:23;;;;;;;2.70;2.20;;;;;;;;;;5074061;28;20032;-43
2022/05/04 10:02:49;;;;;;;7.10;2.90;;;;;;;;;;5074427;28;20044;-39
2022/05/04 10:05:16;;;;;;;4.05;2.70;;;;;;;;;;5065254;28;20048;-38
2022/05/04 10:07:42;;;;;;;4.22;2.85;;;;;;;;;;5056501;28;20033;-38
2022/05/04 10:10:09;;;;;;;3.17;2.22;;;;;;;;;;5059041;28;20046;-41
2022/05/04 10:12:40;;;;;;;2.67;2.00;;;;;;;;;;5065822;28;20033;-42
2022/05/04 10:15:10;;;;;;;2.10;1.67;;;;;;;;;;5062470;28;20032;-39
2022/05/04 10:17:47;;;;;;;2.40;2.20;;;;;;;;;;5054090;28;20507;-39
2022/05/04 10:20:18;;;;;;;4.35;2.08;;;;;;;;;;5068894;28;20059;-42
2022/05/04 10:22:55;;;;;;;2.60;1.90;;;;;;;;;;5062901;28;20058;-41
2022/05/04 10:25:23;;;;;;;2.00;1.80;;;;;;;;;;5063506;28;20411;-40
2022/05/04 10:27:49;;;;;;;7.07;2.38;;;;;;;;;;5062574;28;20017;-37
2022/05/04 10:30:31;;;;;;;4.85;2.35;;;;;;;;;;5060962;28;20029;-38
2022/05/04 10:33:01;;;;;;;3.03;2.70;;;;;;;;;;5061602;28;20020;-38
2022/05/04 10:35:36;;;;;;;3.83;2.35;;;;;;;;;;5058681;28;20090;-38
2022/05/04 10:38:01;;;;;;;2.15;1.95;;;;;;;;;;5063479;28;20029;-38
2022/05/04 10:40:42;;;;;;;4.78;2.60;;;;;;;;;;5061408;28;20048;-39
2022/05/04 10:43:30;;;;;;;2.30;2.00;;;;;;;;;;5061215;28;20376;-39
2022/05/04 10:46:10;;;;;;;3.03;2.50;;;;;;;;;;5054257;28;20035;-38
2022/05/04 10:48:42;;;;;;;5.43;2.17;;;;;;;;;;5062169;28;20041;-38
2022/05/04 10:51:19;;;;;;;2.47;1.98;;;;;;;;;;5061490;28;20138;-38
2022/05/04 10:53:50;;;;;;;2.53;1.95;;;;;;;;;;5060672;28;20121;-38
2022/05/04 10:56:27;;;;;;;2.70;2.17;;;;;;;;;;5062445;28;20024;-39
2022/05/04 10:58:59;;;;;;;4.32;2.17;;;;;;;;;;5061529;28;20029;-38
2022/05/04 11:01:34;;;;;;;5.00;2.10;;;;;;;;;;5060742;28;20040;-38
2022/05/04 11:04:14;;;;;;;5.30;2.17;;;;;;;;;;5061722;28;20078;-38
2022/05/04 11:06:58;;;;;;;4.90;2.03;;;;;;;;;;5062177;28;20021;-40
2022/05/04 11:09:26;;;;;;;2.38;2.17;;;;;;;;;;5061072;28;20484;-39
2022/05/04 11:11:55;;;;;;;2.58;1.90;;;;;;;;;;5043032;28;20108;-39
2022/05/04 11:14:25;;;;;;;1.88;1.75;;;;;;;;;;5052833;28;20554;-40
2022/05/04 11:16:52;;;;;;;3.42;1.90;;;;;;;;;;5053086;28;20064;-39
2022/05/04 11:19:22;;;;;;;3.03;1.80;;;;;;;;;;5053156;28;20021;-38
2022/05/04 11:21:47;;;;;;;1.73;1.63;;;;;;;;;;5059104;28;20078;-39
2022/05/04 11:24:14;;;;;;;4.05;1.75;;;;;;;;;;5072012;28;20362;-38
2022/05/04 11:26:47;;;;;;;2.10;1.90;;;;;;;;;;5072643;28;20429;-38
2022/05/04 11:29:25;;;;;;;2.55;2.17;;;;;;;;;;5072334;28;20028;-39
2022/05/04 11:31:57;;;;;;;3.28;2.20;;;;;;;;;;5072323;28;20059;-40
2022/05/04 11:34:23;;;;;;;2.80;1.90;;;;;;;;;;5072546;28;20020;-39
2022/05/04 11:36:51;;;;;;;2.70;2.00;;;;;;;;;;5072884;28;20040;-40
2022/05/04 11:39:19;;;;;;;4.50;2.58;;;;;;;;;;5072672;28;20500;-40
2022/05/04 11:41:46;;;;;;;3.78;2.10;;;;;;;;;;5072192;28;20111;-40
2022/05/04 11:44:12;;;;;;;4.60;3.00;;;;;;;;;;5072203;28;20108;-42
2022/05/04 11:46:39;;;;;;;4.07;2.70;;;;;;;;;;5072126;28;20055;-42
2022/05/04 11:49:08;;;;;;;2.25;2.05;;;;;;;;;;5072209;28;20403;-41
2022/05/04 11:51:35;;;;;;;3.10;1.95;;;;;;;;;;5072354;28;20029;-46
2022/05/04 11:54:01;;;;;;;5.55;3.85;;;;;;;;;;5071826;28;20059;-40
2022/05/04 11:56:27;;;;;;;6.53;1.85;;;;;;;;;;5071990;28;20040;-39
2022/05/04 11:58:52;;;;;;;1.70;1.60;;;;;;;;;;5072301;28;20032;-38
2022/05/04 12:01:19;;;;;;;2.40;1.98;;;;;;;;;;5071812;28;20510;-38
2022/05/04 12:03:44;;;;;;;3.90;2.80;;;;;;;;;;5071748;28;20069;-37
2022/05/04 12:06:11;;;;;;;3.55;2.85;;;;;;;;;;5065524;28;20017;-39
2022/05/04 12:08:39;;;;;;;3.03;1.95;;;;;;;;;;5060672;28;20103;-40
2022/05/04 12:11:08;;;;;;;1.95;1.73;;;;;;;;;;5060467;28;20029;-40
2022/05/04 12:13:38;;;;;;;1.77;1.63;;;;;;;;;;5060933;28;20020;-39
2022/05/04 12:16:05;;;;;;;1.80;1.70;;;;;;;;;;5060583;28;20021;-40
2022/05/04 12:18:35;;;;;;;2.00;1.80;;;;;;;;;;5061712;28;20025;-40
2022/05/04 12:21:12;;;;;;;2.60;1.98;;;;;;;;;;5062449;28;20117;-40
2022/05/04 12:23:39;;;;;;;1.95;1.80;;;;;;;;;;5055483;28;20041;-40
2022/05/04 12:26:06;;;;;;;2.08;1.88;;;;;;;;;;5051879;28;20020;-38
2022/05/04 12:28:33;;;;;;;3.53;2.10;;;;;;;;;;5051713;28;20024;-39
2022/05/04 12:33:51;;;;;;;1.88;1.73;;;;;;;;;;5028183;28;20503;-38
2022/05/04 12:36:19;;;;;;;1.67;1.58;;;;;;;;;;5051154;28;20029;-38
2022/05/04 12:38:48;;;;;;;3.67;2.08;;;;;;;;;;5051653;28;20028;-37
2022/05/04 12:41:22;;;;;;;21.55;3.47;;;;;;;;;;5051693;28;20466;-37
2022/05/04 12:43:49;;;;;;;3.50;1.90;;;;;;;;;;5051735;28;20025;-38
2022/05/04 12:46:16;;;;;;;2.13;1.92;;;;;;;;;;5057113;28;20119;-37
2022/05/04 12:48:45;;;;;;;2.25;1.90;;;;;;;;;;5071607;28;20071;-38
2022/05/04 12:51:14;;;;;;;2.40;2.00;;;;;;;;;;5071696;28;20032;-41
2022/05/04 12:53:40;;;;;;;1.67;1.58;;;;;;;;;;5071601;28;20070;-40
2022/05/04 12:58:52;;;;;;;3.15;2.60;;;;;;;;;;5031552;28;20064;-40
2022/05/04 13:01:24;;;;;;;8.60;2.83;;;;;;;;;;5031788;28;20159;-40
2022/05/04 13:03:51;;;;;;;4.47;2.55;;;;;;;;;;5030361;28;20022;-41
2022/05/04 13:06:20;;;;;;;7.55;2.00;;;;;;;;;;5031509;28;20110;-40
2022/05/04 13:08:48;;;;;;;5.20;2.30;;;;;;;;;;5024113;28;20040;-39
2022/05/04 13:11:14;;;;;;;2.58;1.80;;;;;;;;;;5031541;28;20477;-38
2022/05/04 13:13:40;;;;;;;2.00;1.80;;;;;;;;;;5031268;28;20030;-38
2022/05/04 13:16:05;;;;;;;2.50;2.13;;;;;;;;;;5031185;28;20036;-39
2022/05/04 13:18:31;;;;;;;8.43;3.28;;;;;;;;;;5031167;28;20083;-39
2022/05/04 13:20:57;;;;;;;4.78;3.20;;;;;;;;;;5031090;28;20063;-38
2022/05/04 13:23:22;;;;;;;7.07;3.70;;;;;;;;;;5030856;28;20109;-38
2022/05/04 13:25:48;;;;;;;5.03;2.65;;;;;;;;;;5031243;28;20037;-39
2022/05/04 13:28:13;;;;;;;11.45;2.92;;;;;;;;;;5031157;28;20057;-43
2022/05/04 13:30:39;;;;;;;3.83;2.55;;;;;;;;;;5031408;28;20030;-41
2022/05/04 13:33:05;;;;;;;3.92;2.35;;;;;;;;;;5020752;28;20022;-42
2022/05/04 13:35:31;;;;;;;5.05;2.95;;;;;;;;;;5010184;28;20030;-39
2022/05/04 13:37:57;;;;;;;4.07;2.83;;;;;;;;;;5016541;28;20088;-40
2022/05/04 13:40:23;;;;;;;2.50;2.22;;;;;;;;;;5010869;28;20444;-40
2022/05/04 13:42:50;;;;;;;3.22;2.75;;;;;;;;;;5011430;28;20113;-42
2022/05/04 13:45:16;;;;;;;3.88;1.65;;;;;;;;;;5011401;28;20053;-41
2022/05/04 13:47:41;;;;;;;3.08;2.50;;;;;;;;;;5012250;28;20076;-39
2022/05/04 13:53:14;;;;;;;3.08;2.67;;;;;;;;;;5014321;28;20026;-40
2022/05/04 13:55:38;;;;;;;3.67;2.47;;;;;;;;;;5042840;28;20051;-41
2022/05/04 13:58:04;;;;;;;3.40;1.95;;;;;;;;;;5053384;28;20021;-39
2022/05/04 14:00:29;;;;;;;1.90;1.80;;;;;;;;;;5054797;28;20469;-39
2022/05/04 14:02:55;;;;;;;2.00;1.80;;;;;;;;;;5054688;28;20029;-40
2022/05/04 14:05:20;;;;;;;2.25;1.73;;;;;;;;;;5055051;28;20476;-40
2022/05/04 14:07:46;;;;;;;2.20;1.58;;;;;;;;;;5055045;28;20465;-40
2022/05/04 14:10:12;;;;;;;3.40;1.88;;;;;;;;;;5054690;28;20432;-41
2022/05/04 14:12:38;;;;;;;1.65;1.55;;;;;;;;;;5052763;28;20029;-40
2022/05/04 14:15:04;;;;;;;4.20;1.58;;;;;;;;;;5052973;28;20021;-40
2022/05/04 14:17:30;;;;;;;2.42;1.88;;;;;;;;;;5052960;28;20053;-40
2022/05/04 14:19:56;;;;;;;1.83;1.65;;;;;;;;;;5052805;28;20033;-39
2022/05/04 14:22:22;;;;;;;1.90;1.70;;;;;;;;;;5052852;28;20032;-39
2022/05/04 14:24:47;;;;;;;1.73;1.63;;;;;;;;;;5067745;28;20135;-42
2022/05/04 14:27:13;;;;;;;2.10;1.70;;;;;;;;;;5072786;28;20077;-41
2022/05/04 14:29:39;;;;;;;2.50;2.03;;;;;;;;;;5072554;28;20067;-40
2022/05/04 14:32:05;;;;;;;4.55;1.73;;;;;;;;;;5072899;28;20033;-41
2022/05/04 14:34:31;;;;;;;2.45;1.95;;;;;;;;;;5072638;28;20035;-41
2022/05/04 14:36:56;;;;;;;1.70;1.60;;;;;;;;;;5054921;28;20039;-39
2022/05/04 14:39:22;;;;;;;2.47;1.67;;;;;;;;;;5072836;28;20051;-39
2022/05/04 14:41:48;;;;;;;1.63;1.45;;;;;;;;;;5072476;28;20021;-39
2022/05/04 14:44:13;;;;;;;2.03;1.83;;;;;;;;;;5072599;28;20035;-39
2022/05/04 14:46:39;;;;;;;1.60;1.50;;;;;;;;;;5072592;28;20023;-39
2022/05/04 14:49:04;;;;;;;1.90;1.80;;;;;;;;;;5071028;28;20037;-40
2022/05/04 14:51:30;;;;;;;1.40;1.30;;;;;;;;;;5072596;28;20024;-39
2022/05/04 14:53:55;;;;;;;2.00;1.80;;;;;;;;;;5072081;28;20024;-40
2022/05/04 14:56:21;;;;;;;2.47;2.00;;;;;;;;;;5072325;28;20105;-39
2022/05/04 14:58:47;;;;;;;1.92;1.50;;;;;;;;;;5071586;28;20374;-39
2022/05/04 15:01:13;;;;;;;2.20;1.92;;;;;;;;;;5071990;28;20036;-39
2022/05/04 15:06:23;;;;;;;2.92;2.30;;;;;;;;;;5072067;28;20400;-39
2022/05/04 15:08:49;;;;;;;1.90;1.80;;;;;;;;;;5072075;28;20032;-40
2022/05/04 15:11:14;;;;;;;2.72;2.15;;;;;;;;;;5072030;28;20468;-40
2022/05/04 15:13:40;;;;;;;2.10;1.70;;;;;;;;;;5071786;28;20041;-42
2022/05/04 15:16:06;;;;;;;8.15;1.95;;;;;;;;;;5071830;28;20056;-41
2022/05/04 15:18:33;;;;;;;3.10;2.20;;;;;;;;;;5071988;28;20068;-39
2022/05/04 15:20:59;;;;;;;1.98;1.48;;;;;;;;;;5071687;28;20035;-39
2022/05/04 15:23:24;;;;;;;1.55;1.45;;;;;;;;;;5071860;28;20028;-40
2022/05/04 15:25:50;;;;;;;2.40;1.80;;;;;;;;;;5071552;28;20573;-40
2022/05/04 15:28:15;;;;;;;1.65;1.25;;;;;;;;;;5071548;28;20036;-40